createdAt,value
2023-03-10T00:00:50.023Z,31.67
2023-03-10T00:03:17.516Z,32.97
2023-03-10T00:05:45.129Z,31.90
2023-03-10T00:08:12.722Z,28.03
2023-03-10T00:10:40.232Z,30.57
2023-03-10T00:13:09.048Z,29.43
2023-03-10T00:15:36.553Z,28.27
2023-03-10T00:18:04.316Z,33.30
2023-03-10T00:20:31.826Z,35.53
2023-03-10T00:22:59.297Z,32.40
2023-03-10T00:25:26.821Z,29.27
2023-03-10T00:27:54.299Z,29.53
2023-03-10T00:30:24.643Z,35.87
2023-03-10T00:32:52.349Z,29.73
2023-03-10T00:35:19.851Z,34.50
2023-03-10T00:37:47.429Z,31.63
2023-03-10T00:40:16.393Z,33.13
2023-03-10T00:42:44.679Z,33.17
2023-03-10T00:45:12.603Z,29.00
2023-03-10T00:47:41.459Z,32.13
2023-03-10T00:50:10.573Z,31.60
2023-03-10T00:52:38.130Z,31.33
2023-03-10T00:55:06.200Z,31.73
2023-03-10T00:57:33.746Z,30.33
2023-03-10T01:00:01.337Z,29.37
2023-03-10T01:02:29.465Z,33.40
2023-03-10T01:05:00.125Z,29.57
2023-03-10T01:07:27.827Z,28.83
2023-03-10T01:09:55.272Z,34.50
2023-03-10T01:12:22.805Z,29.67
2023-03-10T01:14:50.358Z,31.17
2023-03-10T01:17:17.979Z,31.37
2023-03-10T01:19:45.704Z,29.43
2023-03-10T01:22:14.577Z,31.30
2023-03-10T01:24:42.035Z,35.67
2023-03-10T01:27:11.225Z,35.67
2023-03-10T01:29:38.695Z,31.37
2023-03-10T01:32:06.860Z,35.30
2023-03-10T01:34:34.427Z,31.47
2023-03-10T01:37:01.934Z,36.97
2023-03-10T01:39:30.761Z,31.83
2023-03-10T01:41:58.232Z,28.67
2023-03-10T01:44:25.971Z,33.47
2023-03-10T01:46:55.270Z,31.23
2023-03-10T01:49:33.963Z,35.70
2023-03-10T01:52:05.273Z,30.37
2023-03-10T01:54:42.117Z,29.63
2023-03-10T01:57:10.012Z,28.00
2023-03-10T01:59:39.357Z,31.37
2023-03-10T02:02:07.217Z,31.77
2023-03-10T02:04:37.217Z,30.47
2023-03-10T02:07:06.488Z,27.27
2023-03-10T02:09:38.479Z,30.40
2023-03-10T02:12:07.190Z,28.97
2023-03-10T02:14:35.849Z,27.43
2023-03-10T02:17:05.827Z,28.73
2023-03-10T02:19:44.210Z,28.07
2023-03-10T02:22:12.720Z,31.73
2023-03-10T02:24:46.762Z,32.37
2023-03-10T02:27:20.916Z,27.77
2023-03-10T02:29:59.221Z,27.13
2023-03-10T02:32:34.388Z,28.57
2023-03-10T02:35:02.450Z,33.00
2023-03-10T02:37:34.222Z,28.90
2023-03-10T02:40:02.167Z,30.97
2023-03-10T02:42:34.955Z,30.27
2023-03-10T02:45:03.432Z,32.83
2023-03-10T02:47:30.952Z,24.33
2023-03-10T02:49:58.537Z,32.50
2023-03-10T02:52:32.897Z,28.83
2023-03-10T02:55:00.532Z,21.90
2023-03-10T02:57:28.443Z,28.63
2023-03-10T02:59:57.448Z,28.17
2023-03-10T03:02:25.068Z,26.10
2023-03-10T03:04:52.986Z,35.50
2023-03-10T03:07:20.591Z,23.87
2023-03-10T03:09:48.204Z,25.60
2023-03-10T03:12:15.729Z,26.17
2023-03-10T03:14:43.504Z,27.50
2023-03-10T03:17:12.880Z,22.03
2023-03-10T03:19:40.397Z,25.50
2023-03-10T03:22:08.163Z,28.47
2023-03-10T03:24:35.713Z,26.63
2023-03-10T03:27:03.678Z,22.57
2023-03-10T03:29:31.310Z,29.73
2023-03-10T03:31:59.753Z,28.77
2023-03-10T03:34:32.579Z,30.83
2023-03-10T03:37:03.252Z,27.20
2023-03-10T03:39:36.653Z,31.00
2023-03-10T03:42:07.952Z,30.07
2023-03-10T03:44:44.446Z,27.00
2023-03-10T03:47:12.787Z,29.70
2023-03-10T03:49:42.133Z,25.00
2023-03-10T03:52:12.521Z,26.47
2023-03-10T03:54:40.122Z,27.87
2023-03-10T03:57:07.882Z,27.90
2023-03-10T03:59:36.105Z,27.20
2023-03-10T04:02:04.087Z,30.23
2023-03-10T04:04:32.072Z,34.03
2023-03-10T04:07:01.220Z,27.80
2023-03-10T04:09:30.236Z,24.63
2023-03-10T04:11:57.914Z,25.97
2023-03-10T04:14:25.675Z,28.00
2023-03-10T04:16:55.605Z,28.13
2023-03-10T04:19:23.151Z,25.93
2023-03-10T04:21:56.160Z,33.13
2023-03-10T04:24:25.809Z,28.17
2023-03-10T04:26:53.432Z,24.97
2023-03-10T04:29:24.312Z,27.90
2023-03-10T04:32:04.917Z,25.60
2023-03-10T04:34:36.225Z,32.57
2023-03-10T04:37:04.809Z,29.73
2023-03-10T04:39:34.299Z,27.67
2023-03-10T04:42:02.257Z,26.93
2023-03-10T04:44:31.598Z,25.17
2023-03-10T04:47:02.425Z,32.83
2023-03-10T04:49:30.757Z,29.23
2023-03-10T04:51:58.725Z,29.23
2023-03-10T04:54:26.639Z,28.30
2023-03-10T04:56:56.322Z,30.30
2023-03-10T04:59:24.425Z,30.83
2023-03-10T05:01:52.348Z,30.33
2023-03-10T05:04:20.233Z,25.90
2023-03-10T05:06:51.062Z,32.90
2023-03-10T05:09:30.815Z,28.20
2023-03-10T05:11:59.679Z,29.93
2023-03-10T05:14:31.355Z,29.47
2023-03-10T05:16:58.977Z,29.03
2023-03-10T05:19:28.652Z,28.60
2023-03-10T05:21:58.238Z,34.03
2023-03-10T05:24:25.996Z,31.20
2023-03-10T05:26:53.548Z,31.00
2023-03-10T05:29:22.545Z,28.03
2023-03-10T05:31:54.644Z,32.87
2023-03-10T05:34:28.114Z,30.97
2023-03-10T05:36:58.811Z,34.63
2023-03-10T05:39:28.244Z,28.13
2023-03-10T05:41:58.295Z,31.67
2023-03-10T05:44:30.247Z,25.23
2023-03-10T05:46:57.847Z,35.83
2023-03-10T05:49:25.454Z,32.73
2023-03-10T05:51:53.758Z,32.33
2023-03-10T05:54:22.017Z,30.90
2023-03-10T05:56:49.792Z,31.50
2023-03-10T05:59:18.964Z,34.70
2023-03-10T06:01:48.169Z,35.37
2023-03-10T06:04:16.292Z,23.30
2023-03-10T06:06:44.010Z,36.43
2023-03-10T06:09:11.543Z,34.93
2023-03-10T06:11:39.048Z,32.00
2023-03-10T06:14:06.516Z,31.73
2023-03-10T06:16:34.114Z,31.93
2023-03-10T06:19:02.975Z,32.07
2023-03-10T06:21:30.579Z,32.07
2023-03-10T06:23:59.105Z,28.33
2023-03-10T06:26:26.855Z,22.77
2023-03-10T06:28:54.369Z,28.20
2023-03-10T06:31:24.381Z,32.23
2023-03-10T06:33:52.609Z,31.53
2023-03-10T06:36:22.257Z,28.53
2023-03-10T06:38:50.242Z,29.57
2023-03-10T06:41:18.378Z,39.97
2023-03-10T06:43:46.261Z,28.90
2023-03-10T06:46:15.021Z,27.00
2023-03-10T06:48:43.915Z,27.90
2023-03-10T06:51:15.338Z,28.47
2023-03-10T06:53:44.414Z,29.43
2023-03-10T06:56:14.110Z,26.60
2023-03-10T06:58:42.426Z,28.40
2023-03-10T07:01:10.654Z,31.90
2023-03-10T07:03:38.322Z,18.03
2023-03-10T07:06:06.860Z,25.70
2023-03-10T07:08:34.343Z,26.00
2023-03-10T07:11:03.134Z,24.03
2023-03-10T07:13:30.575Z,23.67
2023-03-10T07:15:58.120Z,29.53
2023-03-10T07:18:27.733Z,27.90
2023-03-10T07:20:55.265Z,35.30
2023-03-10T07:23:23.130Z,27.87
2023-03-10T07:25:53.264Z,27.40
2023-03-10T07:28:22.038Z,25.93
2023-03-10T07:30:50.143Z,28.30
2023-03-10T07:33:17.774Z,27.60
2023-03-10T07:35:45.811Z,29.27
2023-03-10T07:38:13.368Z,26.63
2023-03-10T07:40:40.900Z,28.63
2023-03-10T07:43:08.774Z,27.73
2023-03-10T07:45:38.879Z,25.47
2023-03-10T07:48:07.072Z,24.37
2023-03-10T07:50:34.594Z,24.20
2023-03-10T07:53:02.071Z,26.50
2023-03-10T07:55:29.690Z,26.00
2023-03-10T07:57:57.527Z,29.40
2023-03-10T08:00:25.076Z,17.30
2023-03-10T08:02:53.912Z,31.57
2023-03-10T08:05:21.514Z,26.70
2023-03-10T08:07:49.087Z,32.10
2023-03-10T08:10:16.643Z,26.10
2023-03-10T08:12:44.113Z,28.90
2023-03-10T08:15:13.272Z,22.40
2023-03-10T08:17:40.846Z,25.83
2023-03-10T08:20:11.811Z,27.83
2023-03-10T08:22:39.264Z,28.70
2023-03-10T08:25:07.577Z,22.70
2023-03-10T08:27:35.455Z,25.77
2023-03-10T08:30:03.094Z,24.63
2023-03-10T08:32:33.701Z,25.53
2023-03-10T08:35:01.692Z,25.23
2023-03-10T08:37:30.592Z,30.47
2023-03-10T08:39:59.150Z,26.47
2023-03-10T08:42:27.211Z,23.30
2023-03-10T08:44:56.141Z,25.83
2023-03-10T08:47:24.926Z,24.83
2023-03-10T08:49:53.445Z,28.53
2023-03-10T08:52:20.904Z,26.80
2023-03-10T08:54:49.743Z,28.20
2023-03-10T08:57:17.407Z,30.77
2023-03-10T08:59:44.960Z,24.30
2023-03-10T09:02:14.795Z,27.47
2023-03-10T09:04:42.508Z,24.50
2023-03-10T09:07:10.404Z,27.23
2023-03-10T09:09:37.995Z,31.87
2023-03-10T09:12:08.869Z,27.93
2023-03-10T09:14:36.413Z,26.30
2023-03-10T09:17:04.605Z,29.50
2023-03-10T09:19:32.203Z,29.63
2023-03-10T09:21:59.689Z,28.30
2023-03-10T09:24:27.419Z,29.40
2023-03-10T09:26:55.829Z,29.33
2023-03-10T09:29:41.790Z,25.97
2023-03-10T09:32:10.573Z,26.83
2023-03-10T09:34:38.219Z,26.17
2023-03-10T09:37:08.431Z,25.70
2023-03-10T09:39:36.407Z,26.90
2023-03-10T09:42:25.561Z,23.53
2023-03-10T09:45:22.696Z,29.10
2023-03-10T09:48:09.121Z,29.47
2023-03-10T09:50:40.117Z,31.23
2023-03-10T09:53:20.458Z,31.43
2023-03-10T09:55:49.119Z,26.70
2023-03-10T09:58:26.462Z,28.10
2023-03-10T10:00:55.520Z,25.77
2023-03-10T10:03:28.849Z,29.97
2023-03-10T10:05:57.877Z,30.60
2023-03-10T10:08:29.346Z,19.43
2023-03-10T10:10:58.533Z,34.50
2023-03-10T10:13:29.712Z,28.63
2023-03-10T10:16:21.515Z,28.27
2023-03-10T10:18:55.657Z,28.87
2023-03-10T10:21:33.604Z,36.03
2023-03-10T10:24:08.387Z,31.13
2023-03-10T10:26:35.933Z,33.17
2023-03-10T10:29:14.207Z,29.60
2023-03-10T10:31:43.211Z,34.60
2023-03-10T10:34:21.632Z,35.20
2023-03-10T10:36:51.928Z,36.70
2023-03-10T10:39:27.829Z,37.77
2023-03-10T10:41:55.762Z,39.30
2023-03-10T10:44:23.381Z,46.00
2023-03-10T10:46:56.606Z,42.13
2023-03-10T10:49:25.822Z,47.03
2023-03-10T10:52:05.461Z,36.20
2023-03-10T10:54:36.324Z,41.70
2023-03-10T10:57:06.099Z,37.27
2023-03-10T10:59:34.549Z,39.07
2023-03-10T11:02:04.287Z,45.10
2023-03-10T11:04:44.202Z,34.73
2023-03-10T11:07:17.615Z,45.30
2023-03-10T11:09:45.317Z,37.03
2023-03-10T11:12:19.995Z,41.20
2023-03-10T11:14:55.571Z,44.90
2023-03-10T11:17:32.148Z,36.47
2023-03-10T11:20:07.018Z,37.47
2023-03-10T11:22:38.847Z,38.47
2023-03-10T11:25:15.001Z,35.20
2023-03-10T11:27:49.838Z,37.60
2023-03-10T11:30:19.826Z,39.83
2023-03-10T11:32:57.929Z,31.90
2023-03-10T11:35:28.120Z,38.70
2023-03-10T11:38:04.499Z,44.90
2023-03-10T11:40:37.292Z,38.13
2023-03-10T11:43:13.603Z,36.30
2023-03-10T11:45:46.816Z,42.77
2023-03-10T11:48:28.902Z,37.70
2023-03-10T11:50:59.088Z,39.43
2023-03-10T11:53:33.162Z,42.37
2023-03-10T11:56:01.814Z,35.63
2023-03-10T11:58:35.931Z,35.00
2023-03-10T12:01:15.556Z,36.67
2023-03-10T12:03:49.384Z,35.97
2023-03-10T12:06:21.008Z,47.63
2023-03-10T12:08:51.019Z,35.50
2023-03-10T12:11:23.130Z,36.57
2023-03-10T12:13:52.993Z,41.10
2023-03-10T12:16:23.472Z,39.90
2023-03-10T12:18:53.456Z,38.50
2023-03-10T12:21:22.814Z,35.60
2023-03-10T12:23:53.532Z,37.50
2023-03-10T12:26:58.873Z,36.70
2023-03-10T12:29:38.031Z,35.20
2023-03-10T12:32:06.082Z,36.20
2023-03-10T12:34:35.059Z,29.43
2023-03-10T12:37:08.760Z,34.20
2023-03-10T12:39:41.580Z,30.87
2023-03-10T12:42:30.096Z,34.73
2023-03-10T12:45:18.063Z,35.13
2023-03-10T12:47:50.735Z,31.10
2023-03-10T12:50:31.173Z,32.27
2023-03-10T12:53:06.032Z,32.60
2023-03-10T12:55:33.773Z,32.90
2023-03-10T12:58:05.766Z,30.53
2023-03-10T13:00:46.358Z,29.50
2023-03-10T13:03:27.722Z,28.07
2023-03-10T13:06:00.160Z,31.30
2023-03-10T13:08:35.904Z,31.37
2023-03-10T13:11:04.724Z,29.60
2023-03-10T13:13:34.982Z,31.67
2023-03-10T13:16:04.455Z,30.00
2023-03-10T13:18:32.580Z,26.63
2023-03-10T13:21:02.570Z,32.00
2023-03-10T13:23:32.535Z,31.03
2023-03-10T13:26:01.624Z,27.70
2023-03-10T13:28:31.378Z,26.67
2023-03-10T13:31:12.332Z,26.17
2023-03-10T13:33:52.348Z,29.73
2023-03-10T13:36:31.502Z,24.60
2023-03-10T13:38:59.391Z,27.73
2023-03-10T13:41:27.096Z,32.73
2023-03-10T13:43:55.626Z,27.73
2023-03-10T13:46:26.628Z,22.57
2023-03-10T13:48:57.937Z,24.67
2023-03-10T13:51:32.059Z,28.20
2023-03-10T13:54:13.367Z,23.73
2023-03-10T13:56:42.060Z,24.60
2023-03-10T13:59:15.325Z,27.47
2023-03-10T14:01:46.658Z,23.30
2023-03-10T14:04:17.663Z,20.50
2023-03-10T14:06:46.924Z,27.00
2023-03-10T14:09:16.197Z,27.10
2023-03-10T14:11:46.814Z,17.47
2023-03-10T14:14:15.585Z,27.30
2023-03-10T14:16:47.989Z,22.90
2023-03-10T14:19:53.327Z,25.23
2023-03-10T14:22:30.028Z,27.93
2023-03-10T14:24:58.195Z,22.90
2023-03-10T14:27:26.874Z,23.73
2023-03-10T14:29:55.767Z,25.37
2023-03-10T14:32:24.149Z,22.73
2023-03-10T14:34:51.853Z,19.60
2023-03-10T14:37:19.537Z,24.07
2023-03-10T14:39:48.386Z,23.43
2023-03-10T14:42:20.539Z,22.23
2023-03-10T14:44:48.820Z,24.73
2023-03-10T14:47:17.328Z,25.70
2023-03-10T14:49:45.123Z,26.43
2023-03-10T14:52:14.778Z,29.03
2023-03-10T14:54:42.460Z,26.10
2023-03-10T14:57:12.092Z,26.67
2023-03-10T14:59:40.592Z,24.77
2023-03-10T15:02:11.682Z,23.10
2023-03-10T15:04:39.247Z,29.10
2023-03-10T15:07:06.866Z,24.37
2023-03-10T15:09:35.307Z,27.10
2023-03-10T15:12:02.889Z,28.20
2023-03-10T15:14:34.316Z,23.07
2023-03-10T15:17:04.383Z,24.23
2023-03-10T15:19:32.499Z,25.23
2023-03-10T15:22:00.159Z,24.50
2023-03-10T15:24:28.258Z,21.07
2023-03-10T15:26:55.926Z,25.27
2023-03-10T15:29:23.595Z,22.70
2023-03-10T15:31:52.629Z,22.67
2023-03-10T15:34:20.773Z,26.53
2023-03-10T15:36:48.974Z,25.67
2023-03-10T15:39:30.755Z,21.00
2023-03-10T15:42:00.427Z,24.07
2023-03-10T15:44:28.525Z,23.90
2023-03-10T15:46:57.849Z,26.73
2023-03-10T15:49:25.614Z,23.33
2023-03-10T15:51:53.627Z,22.90
2023-03-10T15:54:22.142Z,30.80
2023-03-10T15:56:49.976Z,21.63
2023-03-10T15:59:17.779Z,23.97
2023-03-10T16:01:45.444Z,22.43
2023-03-10T16:04:14.535Z,23.03
2023-03-10T16:06:42.110Z,22.80
2023-03-10T16:09:09.826Z,22.90
2023-03-10T16:11:37.472Z,17.53
2023-03-10T16:14:05.154Z,20.37
2023-03-10T16:16:33.049Z,21.90
2023-03-10T16:19:01.025Z,24.60
2023-03-10T16:21:30.149Z,19.20
2023-03-10T16:23:58.027Z,20.33
2023-03-10T16:26:25.800Z,19.17
2023-03-10T16:28:54.761Z,21.17
2023-03-10T16:31:24.522Z,17.50
2023-03-10T16:33:52.324Z,24.83
2023-03-10T16:36:21.626Z,18.77
2023-03-10T16:38:54.382Z,20.70
2023-03-10T16:41:22.964Z,24.00
2023-03-10T16:43:51.216Z,19.57
2023-03-10T16:46:24.879Z,20.87
2023-03-10T16:48:53.980Z,21.00
2023-03-10T16:51:25.080Z,19.47
2023-03-10T16:53:55.397Z,21.07
2023-03-10T16:56:25.062Z,21.20
2023-03-10T16:58:52.718Z,21.73
2023-03-10T17:01:20.682Z,21.87
2023-03-10T17:03:48.790Z,18.47
2023-03-10T17:06:18.084Z,23.70
2023-03-10T17:08:45.731Z,19.20
2023-03-10T17:11:20.204Z,19.50
2023-03-10T17:13:49.688Z,23.13
2023-03-10T17:16:18.676Z,21.00
2023-03-10T17:18:46.878Z,26.50
2023-03-10T17:21:16.295Z,18.83
2023-03-10T17:23:44.327Z,22.10
2023-03-10T17:26:12.621Z,23.77
2023-03-10T17:28:42.699Z,23.37
2023-03-10T17:31:11.514Z,19.77
2023-03-10T17:33:39.195Z,22.27
2023-03-10T17:36:07.654Z,18.13
2023-03-10T17:38:35.871Z,21.70
2023-03-10T17:41:05.540Z,21.30
2023-03-10T17:43:34.621Z,24.43
2023-03-10T17:46:05.561Z,26.27
2023-03-10T17:48:34.269Z,27.70
2023-03-10T17:51:01.997Z,20.30
2023-03-10T17:53:30.496Z,25.63
2023-03-10T17:55:58.488Z,35.63
2023-03-10T17:58:26.972Z,24.23
2023-03-10T18:00:54.825Z,25.83
2023-03-10T18:03:23.814Z,23.03
2023-03-10T18:05:51.708Z,23.63
2023-03-10T18:08:19.357Z,25.20
2023-03-10T18:10:46.939Z,22.57
2023-03-10T18:13:14.856Z,21.93
2023-03-10T18:15:42.540Z,24.57
2023-03-10T18:18:11.540Z,26.60
2023-03-10T18:20:41.512Z,24.33
2023-03-10T18:23:09.052Z,22.00
2023-03-10T18:25:43.361Z,23.53
2023-03-10T18:28:12.164Z,22.37
2023-03-10T18:30:41.521Z,22.57
2023-03-10T18:33:11.100Z,24.90
2023-03-10T18:35:40.689Z,25.27
2023-03-10T18:38:09.755Z,23.80
2023-03-10T18:40:37.620Z,24.17
2023-03-10T18:43:05.366Z,29.03
2023-03-10T18:45:32.975Z,25.27
2023-03-10T18:48:00.465Z,27.03
2023-03-10T18:50:27.908Z,25.63
2023-03-10T18:52:58.247Z,24.73
2023-03-10T18:55:25.884Z,25.30
2023-03-10T18:57:53.426Z,24.30
2023-03-10T19:00:22.252Z,26.00
2023-03-10T19:02:52.166Z,24.57
2023-03-10T19:05:19.960Z,26.10
2023-03-10T19:07:48.079Z,23.07
2023-03-10T19:10:18.318Z,23.47
2023-03-10T19:12:46.059Z,22.80
2023-03-10T19:15:16.030Z,21.40
2023-03-10T19:17:44.179Z,24.80
2023-03-10T19:20:14.653Z,20.47
2023-03-10T19:22:43.212Z,23.30
2023-03-10T19:25:12.882Z,23.40
2023-03-10T19:27:41.704Z,23.90
2023-03-10T19:30:11.962Z,23.17
2023-03-10T19:32:40.658Z,21.83
2023-03-10T19:35:09.046Z,25.07
2023-03-10T19:37:37.152Z,24.87
2023-03-10T19:40:06.227Z,21.70
2023-03-10T19:42:34.056Z,24.03
2023-03-10T19:45:03.719Z,30.80
2023-03-10T19:47:31.489Z,26.23
2023-03-10T19:49:59.008Z,29.37
2023-03-10T19:52:26.662Z,25.90
2023-03-10T19:54:54.579Z,24.80
2023-03-10T19:57:22.198Z,26.20
2023-03-10T19:59:49.928Z,22.40
2023-03-10T20:02:21.449Z,28.40
2023-03-10T20:04:50.429Z,23.20
2023-03-10T20:07:20.271Z,21.67
2023-03-10T20:09:49.387Z,27.77
2023-03-10T20:12:17.055Z,16.40
2023-03-10T20:14:44.762Z,27.23
2023-03-10T20:17:12.371Z,24.50
2023-03-10T20:19:43.391Z,24.73
2023-03-10T20:22:10.893Z,19.70
2023-03-10T20:24:38.439Z,26.30
2023-03-10T20:27:06.024Z,22.40
2023-03-10T20:29:33.784Z,20.30
2023-03-10T20:32:01.343Z,21.97
2023-03-10T20:34:28.917Z,18.67
2023-03-10T20:36:58.061Z,20.53
2023-03-10T20:39:26.607Z,20.10
2023-03-10T20:41:54.152Z,19.53
2023-03-10T20:44:21.640Z,22.30
2023-03-10T20:46:49.251Z,21.80
2023-03-10T20:49:17.278Z,16.70
2023-03-10T20:51:44.922Z,20.83
2023-03-10T20:54:13.750Z,18.43
2023-03-10T20:56:41.269Z,19.90
2023-03-10T20:59:08.815Z,16.87
2023-03-10T21:01:39.624Z,21.13
2023-03-10T21:04:07.304Z,23.90
2023-03-10T21:06:35.844Z,19.60
2023-03-10T21:09:05.828Z,18.87
2023-03-10T21:11:35.242Z,22.57
2023-03-10T21:14:02.898Z,19.80
2023-03-10T21:16:30.537Z,17.50
2023-03-10T21:18:58.147Z,17.97
2023-03-10T21:21:25.664Z,19.93
2023-03-10T21:23:53.284Z,14.80
2023-03-10T21:26:22.232Z,24.10
2023-03-10T21:28:51.148Z,14.27
2023-03-10T21:31:19.064Z,17.63
2023-03-10T21:33:48.918Z,16.00
2023-03-10T21:36:18.166Z,19.63
2023-03-10T21:38:48.622Z,14.57
2023-03-10T21:41:17.242Z,13.67
2023-03-10T21:43:44.955Z,13.60
2023-03-10T21:46:13.972Z,13.80
2023-03-10T21:48:41.884Z,14.93
2023-03-10T21:51:10.808Z,14.00
2023-03-10T21:53:38.366Z,9.37
2023-03-10T21:56:06.882Z,17.00
2023-03-10T21:58:35.171Z,13.60
2023-03-10T22:01:02.850Z,15.17
2023-03-10T22:03:31.794Z,15.37
2023-03-10T22:05:59.381Z,16.80
2023-03-10T22:08:26.872Z,13.63
2023-03-10T22:10:54.436Z,16.07
2023-03-10T22:13:22.623Z,15.20
2023-03-10T22:15:50.620Z,17.23
2023-03-10T22:18:18.287Z,15.30
2023-03-10T22:20:47.134Z,20.73
2023-03-10T22:23:14.767Z,19.90
2023-03-10T22:25:42.251Z,14.87
2023-03-10T22:28:09.808Z,17.13
2023-03-10T22:30:37.536Z,18.50
2023-03-10T22:33:06.895Z,16.23
2023-03-10T22:35:34.456Z,14.00
2023-03-10T22:38:03.635Z,17.30
2023-03-10T22:40:31.913Z,17.53
2023-03-10T22:42:59.400Z,14.03
2023-03-10T22:45:29.053Z,16.23
2023-03-10T22:47:58.688Z,21.80
2023-03-10T22:50:28.368Z,13.97
2023-03-10T22:52:56.321Z,16.47
2023-03-10T22:55:25.939Z,19.23
2023-03-10T22:57:56.477Z,14.10
2023-03-10T23:00:24.270Z,15.10
2023-03-10T23:02:53.826Z,19.40
2023-03-10T23:05:22.401Z,18.20
2023-03-10T23:07:50.281Z,17.43
2023-03-10T23:10:20.684Z,14.73
2023-03-10T23:12:49.876Z,15.27
2023-03-10T23:15:25.161Z,16.33
2023-03-10T23:17:53.602Z,18.37
2023-03-10T23:20:24.371Z,17.00
2023-03-10T23:22:51.971Z,18.80
2023-03-10T23:25:21.673Z,16.30
2023-03-10T23:27:50.940Z,20.13
2023-03-10T23:30:18.655Z,21.53
2023-03-10T23:32:48.625Z,17.20
2023-03-10T23:35:19.292Z,20.53
2023-03-10T23:37:46.968Z,19.33
2023-03-10T23:40:16.458Z,21.03
2023-03-10T23:42:44.017Z,21.80
2023-03-10T23:45:15.732Z,19.03
2023-03-10T23:47:43.703Z,19.50
2023-03-10T23:50:16.827Z,22.43
2023-03-10T23:52:44.553Z,17.90
2023-03-10T23:55:14.993Z,21.50
2023-03-10T23:57:42.950Z,21.23
